createdAt,value
2019-03-26T00:04:06.212Z,13.37
2019-03-26T00:09:13.365Z,13.04
2019-03-26T00:14:21.581Z,12.20
2019-03-26T00:19:29.753Z,13.85
2019-03-26T00:24:38.019Z,12.64
2019-03-26T00:29:46.361Z,10.81
2019-03-26T00:34:54.706Z,12.29
2019-03-26T00:40:02.906Z,12.71
2019-03-26T00:45:11.070Z,9.96
2019-03-26T00:50:19.458Z,12.85
2019-03-26T00:55:27.690Z,15.24
2019-03-26T01:00:35.907Z,12.29
2019-03-26T01:05:44.057Z,13.13
2019-03-26T01:10:52.338Z,12.73
2019-03-26T01:16:00.660Z,11.56
2019-03-26T01:21:01.436Z,15.79
2019-03-26T01:26:09.509Z,12.82
2019-03-26T01:31:17.549Z,10.21
2019-03-26T01:36:25.800Z,14.35
2019-03-26T01:41:34.028Z,13.75
2019-03-26T01:46:42.226Z,11.41
2019-03-26T01:51:50.447Z,15.59
2019-03-26T01:56:58.681Z,14.16
2019-03-26T02:02:06.749Z,15.72
2019-03-26T02:07:14.824Z,15.09
2019-03-26T02:12:23.094Z,16.54
2019-03-26T02:17:31.310Z,15.30
2019-03-26T02:22:39.499Z,17.92
2019-03-26T02:27:47.709Z,15.76
2019-03-26T02:32:55.814Z,16.48
2019-03-26T02:38:04.077Z,15.77
2019-03-26T02:43:12.167Z,15.27
2019-03-26T02:48:20.234Z,16.48
2019-03-26T02:53:28.343Z,16.48
2019-03-26T02:58:36.682Z,17.87
2019-03-26T03:03:45.056Z,16.92
2019-03-26T03:08:53.358Z,16.20
2019-03-26T03:14:01.632Z,13.39
2019-03-26T03:19:09.938Z,16.95
2019-03-26T03:24:18.293Z,12.96
2019-03-26T03:29:24.973Z,13.43
2019-03-26T03:34:33.250Z,12.97
2019-03-26T03:39:41.467Z,13.93
2019-03-26T03:44:49.767Z,13.44
2019-03-26T03:49:58.012Z,15.13
2019-03-26T03:55:06.219Z,15.47
2019-03-26T04:00:14.510Z,11.57
2019-03-26T04:05:22.966Z,15.46
2019-03-26T04:10:31.134Z,13.48
2019-03-26T04:15:39.508Z,14.80
2019-03-26T04:20:47.806Z,17.70
2019-03-26T04:25:55.994Z,15.65
2019-03-26T04:31:04.172Z,17.93
2019-03-26T04:36:24.785Z,15.53
2019-03-26T04:41:20.168Z,17.06
2019-03-26T04:46:28.901Z,15.64
2019-03-26T04:51:37.199Z,17.87
2019-03-26T04:56:45.403Z,13.55
2019-03-26T05:01:53.854Z,16.21
2019-03-26T05:07:02.424Z,14.61
2019-03-26T05:12:10.661Z,15.05
2019-03-26T05:17:19.047Z,15.21
2019-03-26T05:22:27.318Z,16.07
2019-03-26T05:27:45.142Z,13.70
2019-03-26T05:32:43.367Z,14.73
2019-03-26T05:37:55.106Z,15.45
2019-03-26T05:42:53.353Z,13.23
2019-03-26T05:48:01.506Z,13.21
2019-03-26T05:53:09.796Z,12.77
2019-03-26T05:58:17.991Z,10.71
2019-03-26T06:03:26.118Z,13.56
2019-03-26T06:08:34.217Z,12.06
2019-03-26T06:13:42.483Z,9.84
2019-03-26T06:18:50.642Z,11.03
2019-03-26T06:23:58.755Z,9.96
2019-03-26T06:29:06.951Z,11.17
2019-03-26T06:34:15.013Z,10.74
2019-03-26T06:39:23.161Z,8.64
2019-03-26T06:44:31.195Z,11.00
2019-03-26T06:49:39.358Z,9.44
2019-03-26T06:54:47.488Z,9.16
2019-03-26T06:59:55.709Z,12.91
2019-03-26T07:05:03.924Z,12.55
2019-03-26T07:10:12.194Z,13.58
2019-03-26T07:15:20.326Z,8.93
2019-03-26T07:20:27.177Z,13.48
2019-03-26T07:25:35.277Z,11.38
2019-03-26T07:30:43.357Z,10.59
2019-03-26T07:35:51.562Z,14.49
2019-03-26T07:40:59.774Z,10.29
2019-03-26T07:46:07.947Z,11.07
2019-03-26T07:51:16.105Z,12.64
2019-03-26T07:56:24.373Z,12.82
2019-03-26T08:01:32.991Z,11.50
2019-03-26T08:06:41.182Z,12.14
2019-03-26T08:11:49.285Z,12.69
2019-03-26T08:16:57.397Z,17.28
2019-03-26T08:22:05.691Z,12.32
2019-03-26T08:27:13.913Z,10.09
2019-03-26T08:32:22.170Z,11.59
2019-03-26T08:37:30.397Z,12.39
2019-03-26T08:42:38.598Z,11.06
2019-03-26T08:47:46.848Z,11.30
2019-03-26T08:52:55.077Z,10.24
2019-03-26T08:58:03.317Z,8.59
2019-03-26T09:03:11.526Z,12.74
2019-03-26T09:08:25.325Z,12.36
2019-03-26T09:13:25.626Z,12.70
2019-03-26T09:18:33.921Z,10.01
2019-03-26T09:23:42.204Z,11.05
2019-03-26T09:28:50.390Z,14.51
2019-03-26T09:33:58.874Z,10.71
2019-03-26T09:39:07.062Z,8.74
2019-03-26T09:44:15.191Z,7.94
2019-03-26T09:49:23.551Z,8.25
2019-03-26T09:54:31.845Z,8.66
2019-03-26T09:59:40.061Z,11.76
2019-03-26T10:04:48.334Z,11.21
2019-03-26T10:09:56.569Z,9.72
2019-03-26T10:15:04.761Z,10.56
2019-03-26T10:20:13.037Z,8.71
2019-03-26T10:25:21.318Z,12.29
2019-03-26T10:30:29.498Z,10.86
2019-03-26T10:35:37.697Z,9.10
2019-03-26T10:40:45.893Z,8.04
2019-03-26T10:45:54.156Z,12.93
2019-03-26T10:51:02.338Z,10.95
2019-03-26T10:56:10.514Z,8.04
2019-03-26T11:01:18.700Z,7.83
2019-03-26T11:06:26.798Z,9.56
2019-03-26T11:11:35.032Z,6.53
2019-03-26T11:16:43.292Z,6.29
2019-03-26T11:21:51.546Z,6.80
2019-03-26T11:26:59.719Z,6.25
2019-03-26T11:32:08.006Z,6.89
2019-03-26T11:37:16.225Z,10.03
2019-03-26T11:42:24.414Z,6.63
2019-03-26T11:47:32.721Z,8.95
2019-03-26T11:52:40.930Z,7.24
2019-03-26T11:57:49.065Z,7.36
2019-03-26T12:02:57.218Z,8.39
2019-03-26T12:08:05.585Z,8.20
2019-03-26T12:13:13.799Z,10.94
2019-03-26T12:18:22.113Z,10.30
2019-03-26T12:23:30.257Z,8.37
2019-03-26T12:28:38.471Z,7.10
2019-03-26T12:33:46.760Z,4.85
2019-03-26T12:38:54.957Z,4.33
2019-03-26T12:44:03.186Z,3.65
2019-03-26T12:49:11.554Z,4.28
2019-03-26T12:54:19.630Z,4.27
2019-03-26T12:59:27.857Z,3.10
2019-03-26T13:04:36.070Z,3.87
2019-03-26T13:09:44.379Z,4.99
2019-03-26T13:14:52.707Z,6.45
2019-03-26T13:20:01.165Z,4.09
2019-03-26T13:25:09.598Z,4.92
2019-03-26T13:30:17.806Z,3.60
2019-03-26T13:35:26.067Z,4.81
2019-03-26T13:40:34.578Z,4.12
2019-03-26T13:45:42.825Z,6.54
2019-03-26T13:50:51.384Z,4.94
2019-03-26T13:55:59.521Z,5.43
2019-03-26T14:01:08.377Z,6.26
2019-03-26T14:06:16.553Z,6.49
2019-03-26T14:11:24.830Z,4.75
2019-03-26T14:16:33.088Z,4.40
2019-03-26T14:21:41.585Z,4.49
2019-03-26T14:26:49.781Z,5.72
2019-03-26T14:31:58.022Z,7.70
2019-03-26T14:37:06.119Z,6.38
2019-03-26T14:42:14.299Z,6.86
2019-03-26T14:47:22.526Z,5.28
2019-03-26T14:52:30.657Z,7.55
2019-03-26T14:57:38.757Z,6.20
2019-03-26T15:02:47.084Z,7.87
2019-03-26T15:07:55.729Z,8.96
2019-03-26T15:13:03.928Z,9.33
2019-03-26T15:18:12.158Z,7.55
2019-03-26T15:23:20.280Z,4.25
2019-03-26T15:28:28.575Z,5.11
2019-03-26T15:33:36.988Z,3.20
2019-03-26T15:38:45.140Z,3.41
2019-03-26T15:43:53.387Z,1.62
2019-03-26T15:49:01.818Z,2.07
2019-03-26T15:54:10.267Z,2.47
2019-03-26T15:59:18.845Z,2.42
2019-03-26T16:04:27.449Z,2.38
2019-03-26T16:09:36.015Z,3.30
2019-03-26T16:14:44.287Z,2.92
2019-03-26T16:19:52.696Z,2.66
2019-03-26T16:25:01.020Z,3.05
2019-03-26T16:30:09.329Z,2.48
2019-03-26T16:35:17.833Z,2.75
2019-03-26T16:40:28.025Z,3.14
2019-03-26T16:45:26.655Z,3.68
2019-03-26T16:50:34.936Z,3.79
2019-03-26T16:55:43.186Z,4.91
2019-03-26T17:00:51.245Z,4.93
2019-03-26T17:05:59.346Z,6.74
2019-03-26T17:11:07.613Z,8.46
2019-03-26T17:16:15.798Z,8.21
2019-03-26T17:21:23.854Z,6.86
2019-03-26T17:26:31.997Z,8.62
2019-03-26T17:31:40.314Z,11.92
2019-03-26T17:36:48.630Z,8.24
2019-03-26T17:41:56.824Z,8.22
2019-03-26T17:47:05.174Z,6.83
2019-03-26T17:52:13.714Z,5.19
2019-03-26T17:57:22.329Z,5.85
2019-03-26T18:02:30.743Z,5.84
2019-03-26T18:07:38.948Z,5.98
2019-03-26T18:12:47.553Z,6.58
2019-03-26T18:17:56.031Z,7.40
2019-03-26T18:23:04.546Z,5.94
2019-03-26T18:28:12.713Z,10.18
2019-03-26T18:33:23.571Z,6.67
2019-03-26T18:38:21.967Z,7.65
2019-03-26T18:43:30.382Z,7.85
2019-03-26T18:48:41.390Z,10.10
2019-03-26T18:53:46.507Z,10.50
2019-03-26T18:58:54.849Z,12.22
2019-03-26T19:04:03.194Z,15.26
2019-03-26T19:09:11.491Z,12.11
2019-03-26T19:14:19.765Z,14.45
2019-03-26T19:19:28.082Z,15.28
2019-03-26T19:24:36.402Z,16.10
2019-03-26T19:29:44.805Z,15.16
2019-03-26T19:34:54.418Z,17.28
2019-03-26T19:40:03.863Z,22.66
2019-03-26T19:45:16.110Z,14.60
2019-03-26T19:50:15.185Z,17.28
2019-03-26T19:55:23.142Z,17.77
2019-03-26T20:00:33.027Z,20.51
2019-03-26T20:05:31.341Z,16.68
2019-03-26T20:10:40.375Z,18.86
2019-03-26T20:15:49.650Z,15.75
2019-03-26T20:20:58.716Z,18.53
2019-03-26T20:26:06.406Z,17.06
2019-03-26T20:31:15.924Z,12.76
2019-03-26T20:36:24.808Z,17.15
2019-03-26T20:41:34.172Z,19.30
2019-03-26T20:46:42.649Z,16.84
2019-03-26T20:51:51.243Z,16.23
2019-03-26T20:56:59.970Z,18.56
2019-03-26T21:02:08.575Z,18.38
2019-03-26T21:07:17.235Z,19.61
2019-03-26T21:12:25.971Z,17.99
2019-03-26T21:17:37.006Z,21.26
2019-03-26T21:22:42.574Z,19.64
2019-03-26T21:27:56.795Z,19.71
2019-03-26T21:32:54.284Z,17.13
2019-03-26T21:38:05.082Z,16.78
2019-03-26T21:43:13.640Z,17.79
2019-03-26T21:48:22.642Z,17.65
2019-03-26T21:53:31.463Z,21.11
2019-03-26T21:58:39.802Z,19.69
2019-03-26T22:03:48.662Z,15.10
2019-03-26T22:08:57.104Z,15.36
2019-03-26T22:14:17.385Z,16.48
2019-03-26T22:19:13.693Z,15.52
2019-03-26T22:24:22.304Z,13.58
2019-03-26T22:29:30.881Z,16.44
2019-03-26T22:34:39.241Z,12.41
2019-03-26T22:39:47.754Z,14.30
2019-03-26T22:44:56.521Z,15.37
2019-03-26T22:50:06.002Z,14.96
2019-03-26T22:55:14.448Z,14.78
2019-03-26T23:00:23.025Z,12.55
2019-03-26T23:05:31.793Z,12.38
2019-03-26T23:10:40.097Z,14.92
2019-03-26T23:15:49.202Z,14.35
2019-03-26T23:20:57.775Z,14.56
2019-03-26T23:26:06.086Z,12.03
2019-03-26T23:31:14.397Z,13.60
2019-03-26T23:36:22.988Z,15.23
2019-03-26T23:41:31.238Z,16.16
2019-03-26T23:46:39.549Z,14.13
2019-03-26T23:51:48.448Z,14.25
2019-03-26T23:56:56.616Z,17.74
